sensor_id;sensor_type;location;lat;lon;timestamp;P1;durP1;ratioP1;P2;durP2;ratioP2
18883;SDS011;9574;47.282;9.640;2023-08-08T00:01:13;3.07;;;1.83;;
18883;SDS011;9574;47.282;9.640;2023-08-08T00:03:41;1.77;;;1.60;;
18883;SDS011;9574;47.282;9.640;2023-08-08T00:06:08;1.53;;;1.40;;
18883;SDS011;9574;47.282;9.640;2023-08-08T00:08:35;2.40;;;1.40;;
18883;SDS011;9574;47.282;9.640;2023-08-08T00:11:02;1.93;;;1.40;;
18883;SDS011;9574;47.282;9.640;2023-08-08T00:13:29;1.60;;;1.30;;
18883;SDS011;9574;47.282;9.640;2023-08-08T00:15:56;2.07;;;1.60;;
18883;SDS011;9574;47.282;9.640;2023-08-08T00:18:23;3.17;;;1.40;;
18883;SDS011;9574;47.282;9.640;2023-08-08T00:20:52;1.67;;;1.27;;
18883;SDS011;9574;47.282;9.640;2023-08-08T00:23:19;1.47;;;1.10;;
18883;SDS011;9574;47.282;9.640;2023-08-08T00:25:46;2.20;;;1.30;;
18883;SDS011;9574;47.282;9.640;2023-08-08T00:28:15;2.87;;;1.47;;
18883;SDS011;9574;47.282;9.640;2023-08-08T00:30:42;2.30;;;1.40;;
18883;SDS011;9574;47.282;9.640;2023-08-08T00:33:09;2.03;;;1.33;;
18883;SDS011;9574;47.282;9.640;2023-08-08T00:35:36;1.50;;;1.20;;
18883;SDS011;9574;47.282;9.640;2023-08-08T00:38:04;1.57;;;1.10;;
18883;SDS011;9574;47.282;9.640;2023-08-08T00:40:31;1.00;;;1.00;;
18883;SDS011;9574;47.282;9.640;2023-08-08T00:42:58;1.80;;;1.20;;
18883;SDS011;9574;47.282;9.640;2023-08-08T00:45:25;1.07;;;0.97;;
18883;SDS011;9574;47.282;9.640;2023-08-08T00:47:52;2.17;;;1.20;;
18883;SDS011;9574;47.282;9.640;2023-08-08T00:50:20;0.97;;;0.97;;
18883;SDS011;9574;47.282;9.640;2023-08-08T00:52:47;1.10;;;1.00;;
18883;SDS011;9574;47.282;9.640;2023-08-08T00:55:16;1.10;;;1.07;;
18883;SDS011;9574;47.282;9.640;2023-08-08T00:57:43;1.27;;;1.10;;
18883;SDS011;9574;47.282;9.640;2023-08-08T01:00:11;1.73;;;1.13;;
18883;SDS011;9574;47.282;9.640;2023-08-08T01:02:39;1.33;;;1.20;;
18883;SDS011;9574;47.282;9.640;2023-08-08T01:05:06;1.93;;;1.37;;
18883;SDS011;9574;47.282;9.640;2023-08-08T01:07:36;1.20;;;1.10;;
18883;SDS011;9574;47.282;9.640;2023-08-08T01:10:09;1.43;;;1.10;;
18883;SDS011;9574;47.282;9.640;2023-08-08T01:12:41;1.10;;;1.10;;
18883;SDS011;9574;47.282;9.640;2023-08-08T01:15:10;1.30;;;1.20;;
18883;SDS011;9574;47.282;9.640;2023-08-08T01:17:39;1.90;;;1.30;;
18883;SDS011;9574;47.282;9.640;2023-08-08T01:20:08;1.70;;;1.40;;
18883;SDS011;9574;47.282;9.640;2023-08-08T01:22:40;2.80;;;1.53;;
18883;SDS011;9574;47.282;9.640;2023-08-08T01:25:16;2.17;;;1.40;;
18883;SDS011;9574;47.282;9.640;2023-08-08T01:27:44;1.10;;;1.07;;
18883;SDS011;9574;47.282;9.640;2023-08-08T01:30:11;1.93;;;1.30;;
18883;SDS011;9574;47.282;9.640;2023-08-08T01:32:38;1.67;;;1.20;;
18883;SDS011;9574;47.282;9.640;2023-08-08T01:35:06;2.97;;;1.20;;
18883;SDS011;9574;47.282;9.640;2023-08-08T01:37:36;2.17;;;1.43;;
18883;SDS011;9574;47.282;9.640;2023-08-08T01:40:08;1.37;;;1.20;;
18883;SDS011;9574;47.282;9.640;2023-08-08T01:42:38;1.67;;;1.10;;
18883;SDS011;9574;47.282;9.640;2023-08-08T01:45:08;1.13;;;1.03;;
18883;SDS011;9574;47.282;9.640;2023-08-08T01:47:35;1.73;;;1.50;;
18883;SDS011;9574;47.282;9.640;2023-08-08T01:50:02;2.43;;;1.27;;
18883;SDS011;9574;47.282;9.640;2023-08-08T01:52:30;3.20;;;1.10;;
18883;SDS011;9574;47.282;9.640;2023-08-08T01:54:57;1.13;;;1.07;;
18883;SDS011;9574;47.282;9.640;2023-08-08T01:57:24;1.33;;;1.23;;
18883;SDS011;9574;47.282;9.640;2023-08-08T01:59:52;4.10;;;1.30;;
18883;SDS011;9574;47.282;9.640;2023-08-08T02:02:19;0.93;;;0.90;;
18883;SDS011;9574;47.282;9.640;2023-08-08T02:04:46;1.37;;;1.27;;
18883;SDS011;9574;47.282;9.640;2023-08-08T02:07:13;1.50;;;1.20;;
18883;SDS011;9574;47.282;9.640;2023-08-08T02:09:41;1.20;;;1.10;;
18883;SDS011;9574;47.282;9.640;2023-08-08T02:12:08;1.90;;;1.37;;
18883;SDS011;9574;47.282;9.640;2023-08-08T02:14:36;4.20;;;1.20;;
18883;SDS011;9574;47.282;9.640;2023-08-08T02:17:04;1.60;;;1.20;;
18883;SDS011;9574;47.282;9.640;2023-08-08T02:19:31;1.67;;;1.20;;
18883;SDS011;9574;47.282;9.640;2023-08-08T02:21:58;1.60;;;1.27;;
18883;SDS011;9574;47.282;9.640;2023-08-08T02:24:25;3.03;;;1.30;;
18883;SDS011;9574;47.282;9.640;2023-08-08T02:26:52;1.17;;;1.07;;
18883;SDS011;9574;47.282;9.640;2023-08-08T02:29:19;2.67;;;1.03;;
18883;SDS011;9574;47.282;9.640;2023-08-08T02:31:46;1.57;;;1.37;;
18883;SDS011;9574;47.282;9.640;2023-08-08T02:34:14;2.00;;;1.33;;
18883;SDS011;9574;47.282;9.640;2023-08-08T02:36:41;1.30;;;1.20;;
18883;SDS011;9574;47.282;9.640;2023-08-08T02:39:09;3.43;;;1.40;;
18883;SDS011;9574;47.282;9.640;2023-08-08T02:41:36;3.57;;;1.30;;
18883;SDS011;9574;47.282;9.640;2023-08-08T02:44:03;1.37;;;1.27;;
18883;SDS011;9574;47.282;9.640;2023-08-08T02:46:30;1.30;;;1.20;;
18883;SDS011;9574;47.282;9.640;2023-08-08T02:48:57;3.40;;;1.13;;
18883;SDS011;9574;47.282;9.640;2023-08-08T02:51:25;1.40;;;1.30;;
18883;SDS011;9574;47.282;9.640;2023-08-08T02:53:52;1.60;;;1.50;;
18883;SDS011;9574;47.282;9.640;2023-08-08T02:56:19;2.97;;;1.47;;
18883;SDS011;9574;47.282;9.640;2023-08-08T02:58:46;2.57;;;1.43;;
18883;SDS011;9574;47.282;9.640;2023-08-08T03:01:13;2.37;;;1.43;;
18883;SDS011;9574;47.282;9.640;2023-08-08T03:03:41;1.53;;;1.43;;
18883;SDS011;9574;47.282;9.640;2023-08-08T03:06:08;3.03;;;1.20;;
18883;SDS011;9574;47.282;9.640;2023-08-08T03:08:37;2.90;;;1.27;;
18883;SDS011;9574;47.282;9.640;2023-08-08T03:11:04;1.30;;;1.20;;
18883;SDS011;9574;47.282;9.640;2023-08-08T03:13:31;1.00;;;0.90;;
18883;SDS011;9574;47.282;9.640;2023-08-08T03:15:58;1.30;;;1.20;;
18883;SDS011;9574;47.282;9.640;2023-08-08T03:18:25;2.50;;;1.30;;
18883;SDS011;9574;47.282;9.640;2023-08-08T03:20:52;2.77;;;1.30;;
18883;SDS011;9574;47.282;9.640;2023-08-08T03:23:19;1.57;;;1.30;;
18883;SDS011;9574;47.282;9.640;2023-08-08T03:25:49;1.20;;;1.10;;
18883;SDS011;9574;47.282;9.640;2023-08-08T03:28:17;1.37;;;1.20;;
18883;SDS011;9574;47.282;9.640;2023-08-08T03:30:44;1.30;;;1.20;;
18883;SDS011;9574;47.282;9.640;2023-08-08T03:33:11;2.20;;;1.17;;
18883;SDS011;9574;47.282;9.640;2023-08-08T03:35:38;1.33;;;1.10;;
18883;SDS011;9574;47.282;9.640;2023-08-08T03:38:05;5.17;;;1.13;;
18883;SDS011;9574;47.282;9.640;2023-08-08T03:40:32;2.17;;;1.20;;
18883;SDS011;9574;47.282;9.640;2023-08-08T03:43:01;1.43;;;1.17;;
18883;SDS011;9574;47.282;9.640;2023-08-08T03:45:28;2.17;;;1.20;;
18883;SDS011;9574;47.282;9.640;2023-08-08T03:47:55;2.63;;;1.40;;
18883;SDS011;9574;47.282;9.640;2023-08-08T03:50:22;1.77;;;1.20;;
18883;SDS011;9574;47.282;9.640;2023-08-08T03:52:49;2.17;;;1.23;;
18883;SDS011;9574;47.282;9.640;2023-08-08T03:55:16;1.80;;;1.20;;
18883;SDS011;9574;47.282;9.640;2023-08-08T03:57:43;2.30;;;1.10;;
18883;SDS011;9574;47.282;9.640;2023-08-08T04:00:11;1.10;;;1.00;;
18883;SDS011;9574;47.282;9.640;2023-08-08T04:02:39;1.80;;;1.20;;
18883;SDS011;9574;47.282;9.640;2023-08-08T04:05:06;1.80;;;1.10;;
18883;SDS011;9574;47.282;9.640;2023-08-08T04:07:32;1.30;;;1.20;;
18883;SDS011;9574;47.282;9.640;2023-08-08T04:10:00;1.20;;;1.00;;
18883;SDS011;9574;47.282;9.640;2023-08-08T04:12:27;1.37;;;1.17;;
18883;SDS011;9574;47.282;9.640;2023-08-08T04:14:54;1.37;;;1.27;;
18883;SDS011;9574;47.282;9.640;2023-08-08T04:17:23;3.50;;;1.33;;
18883;SDS011;9574;47.282;9.640;2023-08-08T04:19:50;1.30;;;1.17;;
18883;SDS011;9574;47.282;9.640;2023-08-08T04:22:17;1.13;;;1.03;;
18883;SDS011;9574;47.282;9.640;2023-08-08T04:24:44;1.30;;;1.20;;
18883;SDS011;9574;47.282;9.640;2023-08-08T04:27:11;1.40;;;1.30;;
18883;SDS011;9574;47.282;9.640;2023-08-08T04:29:38;2.07;;;1.30;;
18883;SDS011;9574;47.282;9.640;2023-08-08T04:32:05;1.30;;;1.20;;
18883;SDS011;9574;47.282;9.640;2023-08-08T04:34:34;1.63;;;1.40;;
18883;SDS011;9574;47.282;9.640;2023-08-08T04:37:01;1.70;;;1.37;;
18883;SDS011;9574;47.282;9.640;2023-08-08T04:39:28;3.43;;;1.13;;
18883;SDS011;9574;47.282;9.640;2023-08-08T04:41:55;1.47;;;1.37;;
18883;SDS011;9574;47.282;9.640;2023-08-08T04:44:22;2.17;;;1.50;;
18883;SDS011;9574;47.282;9.640;2023-08-08T04:46:49;3.67;;;2.17;;
18883;SDS011;9574;47.282;9.640;2023-08-08T04:49:16;1.10;;;1.00;;
18883;SDS011;9574;47.282;9.640;2023-08-08T04:51:44;3.97;;;1.57;;
18883;SDS011;9574;47.282;9.640;2023-08-08T04:54:11;1.50;;;1.17;;
18883;SDS011;9574;47.282;9.640;2023-08-08T04:56:38;1.83;;;1.57;;
18883;SDS011;9574;47.282;9.640;2023-08-08T04:59:05;3.83;;;1.50;;
18883;SDS011;9574;47.282;9.640;2023-08-08T05:01:32;1.27;;;1.17;;
18883;SDS011;9574;47.282;9.640;2023-08-08T05:03:59;1.47;;;1.33;;
18883;SDS011;9574;47.282;9.640;2023-08-08T05:06:26;2.20;;;1.33;;
18883;SDS011;9574;47.282;9.640;2023-08-08T05:08:55;9.40;;;1.73;;
18883;SDS011;9574;47.282;9.640;2023-08-08T05:11:22;1.70;;;1.27;;
18883;SDS011;9574;47.282;9.640;2023-08-08T05:13:50;3.23;;;1.60;;
18883;SDS011;9574;47.282;9.640;2023-08-08T05:16:17;1.87;;;1.60;;
18883;SDS011;9574;47.282;9.640;2023-08-08T05:18:44;1.70;;;1.20;;
18883;SDS011;9574;47.282;9.640;2023-08-08T05:21:11;1.50;;;1.40;;
18883;SDS011;9574;47.282;9.640;2023-08-08T05:23:38;1.90;;;1.30;;
18883;SDS011;9574;47.282;9.640;2023-08-08T05:26:06;3.30;;;1.30;;
18883;SDS011;9574;47.282;9.640;2023-08-08T05:28:33;2.30;;;1.27;;
18883;SDS011;9574;47.282;9.640;2023-08-08T05:31:00;3.10;;;1.43;;
18883;SDS011;9574;47.282;9.640;2023-08-08T05:33:27;2.67;;;1.50;;
18883;SDS011;9574;47.282;9.640;2023-08-08T05:35:54;1.90;;;1.70;;
18883;SDS011;9574;47.282;9.640;2023-08-08T05:38:21;1.60;;;1.37;;
18883;SDS011;9574;47.282;9.640;2023-08-08T05:40:48;2.20;;;1.80;;
18883;SDS011;9574;47.282;9.640;2023-08-08T05:43:17;1.90;;;1.20;;
18883;SDS011;9574;47.282;9.640;2023-08-08T05:45:44;2.27;;;1.40;;
18883;SDS011;9574;47.282;9.640;2023-08-08T05:48:11;1.40;;;1.30;;
18883;SDS011;9574;47.282;9.640;2023-08-08T05:50:38;2.13;;;1.43;;
18883;SDS011;9574;47.282;9.640;2023-08-08T05:53:05;1.93;;;1.40;;
18883;SDS011;9574;47.282;9.640;2023-08-08T05:55:32;2.87;;;1.50;;
18883;SDS011;9574;47.282;9.640;2023-08-08T05:58:00;2.20;;;1.50;;
18883;SDS011;9574;47.282;9.640;2023-08-08T06:00:28;4.43;;;1.30;;
18883;SDS011;9574;47.282;9.640;2023-08-08T06:02:56;1.63;;;1.47;;
18883;SDS011;9574;47.282;9.640;2023-08-08T06:05:23;2.13;;;1.23;;
18883;SDS011;9574;47.282;9.640;2023-08-08T06:07:50;1.80;;;1.43;;
18883;SDS011;9574;47.282;9.640;2023-08-08T06:10:17;1.77;;;1.50;;
18883;SDS011;9574;47.282;9.640;2023-08-08T06:12:44;2.23;;;1.40;;
18883;SDS011;9574;47.282;9.640;2023-08-08T06:15:11;4.23;;;1.30;;
18883;SDS011;9574;47.282;9.640;2023-08-08T06:17:40;1.37;;;1.27;;
18883;SDS011;9574;47.282;9.640;2023-08-08T06:20:07;2.80;;;1.40;;
18883;SDS011;9574;47.282;9.640;2023-08-08T06:22:36;1.60;;;1.43;;
18883;SDS011;9574;47.282;9.640;2023-08-08T06:25:04;1.57;;;1.33;;
18883;SDS011;9574;47.282;9.640;2023-08-08T06:27:31;5.10;;;1.53;;
18883;SDS011;9574;47.282;9.640;2023-08-08T06:29:58;1.40;;;1.30;;
18883;SDS011;9574;47.282;9.640;2023-08-08T06:32:25;2.50;;;1.40;;
18883;SDS011;9574;47.282;9.640;2023-08-08T06:34:54;2.47;;;1.60;;
18883;SDS011;9574;47.282;9.640;2023-08-08T06:37:21;2.07;;;1.30;;
18883;SDS011;9574;47.282;9.640;2023-08-08T06:39:48;1.37;;;1.20;;
18883;SDS011;9574;47.282;9.640;2023-08-08T06:42:15;1.50;;;1.40;;
18883;SDS011;9574;47.282;9.640;2023-08-08T06:44:42;1.70;;;1.30;;
18883;SDS011;9574;47.282;9.640;2023-08-08T06:47:10;1.50;;;1.40;;
18883;SDS011;9574;47.282;9.640;2023-08-08T06:49:37;1.33;;;1.10;;
18883;SDS011;9574;47.282;9.640;2023-08-08T06:52:06;3.10;;;1.50;;
18883;SDS011;9574;47.282;9.640;2023-08-08T06:54:33;3.40;;;1.30;;
18883;SDS011;9574;47.282;9.640;2023-08-08T06:57:00;2.03;;;1.47;;
18883;SDS011;9574;47.282;9.640;2023-08-08T06:59:27;2.37;;;1.20;;
18883;SDS011;9574;47.282;9.640;2023-08-08T07:01:54;1.50;;;1.30;;
18883;SDS011;9574;47.282;9.640;2023-08-08T07:04:22;2.50;;;1.40;;
18883;SDS011;9574;47.282;9.640;2023-08-08T07:06:50;2.70;;;1.57;;
18883;SDS011;9574;47.282;9.640;2023-08-08T07:09:18;2.50;;;1.50;;
18883;SDS011;9574;47.282;9.640;2023-08-08T07:11:46;3.97;;;1.60;;
18883;SDS011;9574;47.282;9.640;2023-08-08T07:14:13;1.40;;;1.30;;
18883;SDS011;9574;47.282;9.640;2023-08-08T07:16:40;2.40;;;1.37;;
18883;SDS011;9574;47.282;9.640;2023-08-08T07:19:07;1.70;;;1.27;;
18883;SDS011;9574;47.282;9.640;2023-08-08T07:21:34;1.87;;;1.43;;
18883;SDS011;9574;47.282;9.640;2023-08-08T07:24:01;1.40;;;1.20;;
18883;SDS011;9574;47.282;9.640;2023-08-08T07:26:30;3.57;;;1.40;;
18883;SDS011;9574;47.282;9.640;2023-08-08T07:28:57;1.57;;;1.20;;
18883;SDS011;9574;47.282;9.640;2023-08-08T07:31:24;1.57;;;1.10;;
18883;SDS011;9574;47.282;9.640;2023-08-08T07:33:51;3.23;;;1.63;;
18883;SDS011;9574;47.282;9.640;2023-08-08T07:36:18;1.90;;;1.70;;
18883;SDS011;9574;47.282;9.640;2023-08-08T07:38:45;1.27;;;1.10;;
18883;SDS011;9574;47.282;9.640;2023-08-08T07:41:12;1.23;;;1.13;;
18883;SDS011;9574;47.282;9.640;2023-08-08T07:43:40;1.70;;;1.57;;
18883;SDS011;9574;47.282;9.640;2023-08-08T07:46:07;4.97;;;1.37;;
18883;SDS011;9574;47.282;9.640;2023-08-08T07:48:34;1.60;;;1.30;;
18883;SDS011;9574;47.282;9.640;2023-08-08T07:51:01;1.53;;;1.37;;
18883;SDS011;9574;47.282;9.640;2023-08-08T07:53:28;1.97;;;1.33;;
18883;SDS011;9574;47.282;9.640;2023-08-08T07:55:55;3.03;;;1.33;;
18883;SDS011;9574;47.282;9.640;2023-08-08T07:58:22;1.63;;;1.20;;
18883;SDS011;9574;47.282;9.640;2023-08-08T08:00:52;1.00;;;0.90;;
18883;SDS011;9574;47.282;9.640;2023-08-08T08:03:19;2.40;;;1.30;;
18883;SDS011;9574;47.282;9.640;2023-08-08T08:05:46;2.00;;;1.60;;
18883;SDS011;9574;47.282;9.640;2023-08-08T08:08:13;1.50;;;1.33;;
18883;SDS011;9574;47.282;9.640;2023-08-08T08:10:40;2.10;;;1.53;;
18883;SDS011;9574;47.282;9.640;2023-08-08T08:13:07;4.33;;;1.20;;
18883;SDS011;9574;47.282;9.640;2023-08-08T08:15:37;2.60;;;1.40;;
18883;SDS011;9574;47.282;9.640;2023-08-08T08:18:05;1.27;;;1.10;;
18883;SDS011;9574;47.282;9.640;2023-08-08T08:20:32;2.60;;;1.20;;
18883;SDS011;9574;47.282;9.640;2023-08-08T08:23:00;1.80;;;1.23;;
18883;SDS011;9574;47.282;9.640;2023-08-08T08:25:28;2.37;;;1.40;;
18883;SDS011;9574;47.282;9.640;2023-08-08T08:27:55;1.30;;;1.20;;
18883;SDS011;9574;47.282;9.640;2023-08-08T08:30:22;1.30;;;1.03;;
18883;SDS011;9574;47.282;9.640;2023-08-08T08:32:51;1.42;;;1.13;;
18883;SDS011;9574;47.282;9.640;2023-08-08T08:35:19;1.47;;;1.20;;
18883;SDS011;9574;47.282;9.640;2023-08-08T08:37:46;2.38;;;1.20;;
18883;SDS011;9574;47.282;9.640;2023-08-08T08:40:13;1.55;;;1.13;;
18883;SDS011;9574;47.282;9.640;2023-08-08T08:42:41;1.63;;;1.45;;
18883;SDS011;9574;47.282;9.640;2023-08-08T08:45:10;1.73;;;1.40;;
18883;SDS011;9574;47.282;9.640;2023-08-08T08:47:38;1.38;;;1.20;;
18883;SDS011;9574;47.282;9.640;2023-08-08T08:50:08;1.45;;;1.10;;
18883;SDS011;9574;47.282;9.640;2023-08-08T08:52:37;1.23;;;1.13;;
18883;SDS011;9574;47.282;9.640;2023-08-08T08:55:04;2.83;;;1.20;;
18883;SDS011;9574;47.282;9.640;2023-08-08T08:57:33;2.88;;;1.15;;
18883;SDS011;9574;47.282;9.640;2023-08-08T09:00:00;1.73;;;0.95;;
18883;SDS011;9574;47.282;9.640;2023-08-08T09:02:28;1.40;;;1.20;;
18883;SDS011;9574;47.282;9.640;2023-08-08T09:04:55;1.30;;;1.15;;
18883;SDS011;9574;47.282;9.640;2023-08-08T09:07:22;1.70;;;1.20;;
18883;SDS011;9574;47.282;9.640;2023-08-08T09:09:53;1.48;;;1.38;;
18883;SDS011;9574;47.282;9.640;2023-08-08T09:12:20;4.80;;;1.10;;
18883;SDS011;9574;47.282;9.640;2023-08-08T09:14:53;4.30;;;1.10;;
18883;SDS011;9574;47.282;9.640;2023-08-08T09:17:21;1.05;;;1.00;;
18883;SDS011;9574;47.282;9.640;2023-08-08T09:19:52;0.93;;;0.80;;
18883;SDS011;9574;47.282;9.640;2023-08-08T09:22:19;1.83;;;1.30;;
18883;SDS011;9574;47.282;9.640;2023-08-08T09:24:48;1.35;;;1.20;;
18883;SDS011;9574;47.282;9.640;2023-08-08T09:27:17;1.67;;;0.90;;
18883;SDS011;9574;47.282;9.640;2023-08-08T09:29:44;2.10;;;1.08;;
18883;SDS011;9574;47.282;9.640;2023-08-08T09:32:11;1.48;;;1.00;;
18883;SDS011;9574;47.282;9.640;2023-08-08T09:34:40;1.95;;;1.02;;
18883;SDS011;9574;47.282;9.640;2023-08-08T09:37:07;1.77;;;1.00;;
18883;SDS011;9574;47.282;9.640;2023-08-08T09:39:35;1.02;;;0.93;;
18883;SDS011;9574;47.282;9.640;2023-08-08T09:42:03;1.20;;;0.88;;
18883;SDS011;9574;47.282;9.640;2023-08-08T09:44:31;1.30;;;1.20;;
18883;SDS011;9574;47.282;9.640;2023-08-08T09:47:00;1.10;;;1.00;;
18883;SDS011;9574;47.282;9.640;2023-08-08T09:49:28;1.05;;;0.90;;
18883;SDS011;9574;47.282;9.640;2023-08-08T09:51:57;1.48;;;1.10;;
18883;SDS011;9574;47.282;9.640;2023-08-08T09:54:25;1.30;;;1.00;;
18883;SDS011;9574;47.282;9.640;2023-08-08T09:56:52;1.70;;;1.08;;
18883;SDS011;9574;47.282;9.640;2023-08-08T09:59:20;1.35;;;0.90;;
18883;SDS011;9574;47.282;9.640;2023-08-08T10:01:49;1.05;;;0.82;;
18883;SDS011;9574;47.282;9.640;2023-08-08T10:04:18;1.60;;;0.93;;
18883;SDS011;9574;47.282;9.640;2023-08-08T10:06:46;2.22;;;1.15;;
18883;SDS011;9574;47.282;9.640;2023-08-08T10:09:13;2.80;;;1.00;;
18883;SDS011;9574;47.282;9.640;2023-08-08T10:11:41;0.95;;;0.77;;
18883;SDS011;9574;47.282;9.640;2023-08-08T10:14:10;1.48;;;1.02;;
18883;SDS011;9574;47.282;9.640;2023-08-08T10:16:39;1.52;;;1.00;;
18883;SDS011;9574;47.282;9.640;2023-08-08T10:19:10;1.02;;;0.93;;
18883;SDS011;9574;47.282;9.640;2023-08-08T10:21:43;0.75;;;0.65;;
18883;SDS011;9574;47.282;9.640;2023-08-08T10:24:11;1.02;;;0.88;;
18883;SDS011;9574;47.282;9.640;2023-08-08T10:26:51;1.42;;;0.75;;
18883;SDS011;9574;47.282;9.640;2023-08-08T10:29:18;1.88;;;1.02;;
18883;SDS011;9574;47.282;9.640;2023-08-08T10:31:50;0.85;;;0.52;;
18883;SDS011;9574;47.282;9.640;2023-08-08T10:34:20;0.95;;;0.73;;
18883;SDS011;9574;47.282;9.640;2023-08-08T10:36:53;1.58;;;1.00;;
18883;SDS011;9574;47.282;9.640;2023-08-08T10:39:20;1.52;;;1.00;;
18883;SDS011;9574;47.282;9.640;2023-08-08T10:41:48;1.30;;;0.90;;
18883;SDS011;9574;47.282;9.640;2023-08-08T10:44:22;1.55;;;1.20;;
18883;SDS011;9574;47.282;9.640;2023-08-08T10:46:50;1.80;;;0.80;;
18883;SDS011;9574;47.282;9.640;2023-08-08T10:49:21;1.05;;;0.77;;
18883;SDS011;9574;47.282;9.640;2023-08-08T10:51:49;1.33;;;0.90;;
18883;SDS011;9574;47.282;9.640;2023-08-08T10:54:18;1.58;;;0.80;;
18883;SDS011;9574;47.282;9.640;2023-08-08T10:59:44;1.25;;;0.80;;
18883;SDS011;9574;47.282;9.640;2023-08-08T11:02:14;2.47;;;0.90;;
18883;SDS011;9574;47.282;9.640;2023-08-08T11:04:44;2.28;;;1.10;;
18883;SDS011;9574;47.282;9.640;2023-08-08T11:07:12;3.10;;;0.93;;
18883;SDS011;9574;47.282;9.640;2023-08-08T11:09:42;0.98;;;0.73;;
18883;SDS011;9574;47.282;9.640;2023-08-08T11:12:13;1.10;;;1.00;;
18883;SDS011;9574;47.282;9.640;2023-08-08T11:14:41;1.73;;;0.80;;
18883;SDS011;9574;47.282;9.640;2023-08-08T11:17:08;2.13;;;0.90;;
18883;SDS011;9574;47.282;9.640;2023-08-08T11:19:40;2.13;;;1.15;;
18883;SDS011;9574;47.282;9.640;2023-08-08T11:22:10;1.50;;;1.00;;
18883;SDS011;9574;47.282;9.640;2023-08-08T11:24:37;2.13;;;0.90;;
18883;SDS011;9574;47.282;9.640;2023-08-08T11:27:04;1.52;;;0.93;;
18883;SDS011;9574;47.282;9.640;2023-08-08T11:29:31;1.30;;;0.80;;
18883;SDS011;9574;47.282;9.640;2023-08-08T11:31:59;3.53;;;0.93;;
18883;SDS011;9574;47.282;9.640;2023-08-08T11:34:29;0.77;;;0.50;;
18883;SDS011;9574;47.282;9.640;2023-08-08T11:36:58;1.13;;;0.90;;
18883;SDS011;9574;47.282;9.640;2023-08-08T11:39:27;1.52;;;0.80;;
18883;SDS011;9574;47.282;9.640;2023-08-08T11:41:55;0.90;;;0.85;;
18883;SDS011;9574;47.282;9.640;2023-08-08T11:44:23;0.77;;;0.77;;
18883;SDS011;9574;47.282;9.640;2023-08-08T11:46:50;0.77;;;0.70;;
18883;SDS011;9574;47.282;9.640;2023-08-08T11:49:18;1.52;;;1.05;;
18883;SDS011;9574;47.282;9.640;2023-08-08T11:51:46;1.42;;;1.17;;
18883;SDS011;9574;47.282;9.640;2023-08-08T11:54:13;1.20;;;0.82;;
18883;SDS011;9574;47.282;9.640;2023-08-08T11:56:43;0.85;;;0.73;;
18883;SDS011;9574;47.282;9.640;2023-08-08T11:59:10;0.93;;;0.82;;
18883;SDS011;9574;47.282;9.640;2023-08-08T12:01:37;4.72;;;0.90;;
18883;SDS011;9574;47.282;9.640;2023-08-08T12:04:05;1.52;;;0.65;;
18883;SDS011;9574;47.282;9.640;2023-08-08T12:06:32;1.67;;;1.00;;
18883;SDS011;9574;47.282;9.640;2023-08-08T12:09:02;1.35;;;0.90;;
18883;SDS011;9574;47.282;9.640;2023-08-08T12:11:30;1.17;;;0.63;;
18883;SDS011;9574;47.282;9.640;2023-08-08T12:14:02;1.67;;;1.00;;
18883;SDS011;9574;47.282;9.640;2023-08-08T12:16:29;3.83;;;1.35;;
18883;SDS011;9574;47.282;9.640;2023-08-08T12:18:56;1.40;;;0.90;;
18883;SDS011;9574;47.282;9.640;2023-08-08T12:21:23;1.50;;;0.90;;
18883;SDS011;9574;47.282;9.640;2023-08-08T12:23:50;1.25;;;0.90;;
18883;SDS011;9574;47.282;9.640;2023-08-08T12:26:18;1.35;;;0.95;;
18883;SDS011;9574;47.282;9.640;2023-08-08T12:28:45;1.45;;;1.00;;
18883;SDS011;9574;47.282;9.640;2023-08-08T12:31:13;1.30;;;0.82;;
18883;SDS011;9574;47.282;9.640;2023-08-08T12:33:40;2.35;;;1.00;;
18883;SDS011;9574;47.282;9.640;2023-08-08T12:36:07;1.90;;;0.95;;
18883;SDS011;9574;47.282;9.640;2023-08-08T12:38:34;1.67;;;1.10;;
18883;SDS011;9574;47.282;9.640;2023-08-08T12:41:01;0.82;;;0.80;;
18883;SDS011;9574;47.282;9.640;2023-08-08T12:43:28;1.25;;;0.80;;
18883;SDS011;9574;47.282;9.640;2023-08-08T12:45:55;1.35;;;0.90;;
18883;SDS011;9574;47.282;9.640;2023-08-08T12:48:24;0.90;;;0.80;;
18883;SDS011;9574;47.282;9.640;2023-08-08T12:50:51;0.90;;;0.70;;
18883;SDS011;9574;47.282;9.640;2023-08-08T12:53:18;1.08;;;0.98;;
18883;SDS011;9574;47.282;9.640;2023-08-08T12:55:45;0.80;;;0.80;;
18883;SDS011;9574;47.282;9.640;2023-08-08T12:58:12;1.30;;;0.80;;
18883;SDS011;9574;47.282;9.640;2023-08-08T13:00:39;1.35;;;0.90;;
18883;SDS011;9574;47.282;9.640;2023-08-08T13:03:06;0.90;;;0.80;;
18883;SDS011;9574;47.282;9.640;2023-08-08T13:05:35;4.13;;;1.05;;
18883;SDS011;9574;47.282;9.640;2023-08-08T13:08:02;1.20;;;0.77;;
18883;SDS011;9574;47.282;9.640;2023-08-08T13:10:29;0.95;;;0.80;;
18883;SDS011;9574;47.282;9.640;2023-08-08T13:12:56;1.45;;;1.10;;
18883;SDS011;9574;47.282;9.640;2023-08-08T13:15:23;2.10;;;1.27;;
18883;SDS011;9574;47.282;9.640;2023-08-08T13:17:50;1.45;;;0.93;;
18883;SDS011;9574;47.282;9.640;2023-08-08T13:20:17;1.50;;;1.20;;
18883;SDS011;9574;47.282;9.640;2023-08-08T13:22:46;1.25;;;0.90;;
18883;SDS011;9574;47.282;9.640;2023-08-08T13:25:12;0.70;;;0.70;;
18883;SDS011;9574;47.282;9.640;2023-08-08T13:27:40;1.48;;;1.08;;
18883;SDS011;9574;47.282;9.640;2023-08-08T13:30:08;1.27;;;1.00;;
18883;SDS011;9574;47.282;9.640;2023-08-08T13:32:35;2.55;;;0.90;;
18883;SDS011;9574;47.282;9.640;2023-08-08T13:35:04;2.05;;;0.98;;
18883;SDS011;9574;47.282;9.640;2023-08-08T13:37:32;1.65;;;0.90;;
18883;SDS011;9574;47.282;9.640;2023-08-08T13:40:00;1.17;;;0.95;;
18883;SDS011;9574;47.282;9.640;2023-08-08T13:42:28;1.30;;;0.95;;
18883;SDS011;9574;47.282;9.640;2023-08-08T13:44:55;1.85;;;1.08;;
18883;SDS011;9574;47.282;9.640;2023-08-08T13:47:22;2.08;;;1.00;;
18883;SDS011;9574;47.282;9.640;2023-08-08T13:49:49;2.15;;;1.20;;
18883;SDS011;9574;47.282;9.640;2023-08-08T13:52:17;1.13;;;1.02;;
18883;SDS011;9574;47.282;9.640;2023-08-08T13:54:44;1.58;;;1.13;;
18883;SDS011;9574;47.282;9.640;2023-08-08T13:57:12;2.22;;;1.30;;
18883;SDS011;9574;47.282;9.640;2023-08-08T13:59:40;1.00;;;0.90;;
18883;SDS011;9574;47.282;9.640;2023-08-08T14:02:07;1.95;;;1.15;;
18883;SDS011;9574;47.282;9.640;2023-08-08T14:04:36;3.13;;;0.93;;
18883;SDS011;9574;47.282;9.640;2023-08-08T14:07:08;0.95;;;0.77;;
18883;SDS011;9574;47.282;9.640;2023-08-08T14:09:35;1.20;;;0.90;;
18883;SDS011;9574;47.282;9.640;2023-08-08T14:12:03;1.70;;;1.20;;
18883;SDS011;9574;47.282;9.640;2023-08-08T14:14:32;1.27;;;0.88;;
18883;SDS011;9574;47.282;9.640;2023-08-08T14:16:59;1.48;;;0.88;;
18883;SDS011;9574;47.282;9.640;2023-08-08T14:19:26;3.92;;;1.02;;
18883;SDS011;9574;47.282;9.640;2023-08-08T14:21:52;0.98;;;0.90;;
18883;SDS011;9574;47.282;9.640;2023-08-08T14:24:19;1.20;;;1.00;;
18883;SDS011;9574;47.282;9.640;2023-08-08T14:26:46;1.30;;;1.00;;
18883;SDS011;9574;47.282;9.640;2023-08-08T14:29:13;1.90;;;1.25;;
18883;SDS011;9574;47.282;9.640;2023-08-08T14:31:42;2.20;;;1.27;;
18883;SDS011;9574;47.282;9.640;2023-08-08T14:34:09;1.20;;;0.88;;
18883;SDS011;9574;47.282;9.640;2023-08-08T14:36:36;2.97;;;1.00;;
18883;SDS011;9574;47.282;9.640;2023-08-08T14:39:03;1.83;;;0.98;;
18883;SDS011;9574;47.282;9.640;2023-08-08T14:41:30;1.05;;;0.98;;
18883;SDS011;9574;47.282;9.640;2023-08-08T14:43:57;1.38;;;1.00;;
18883;SDS011;9574;47.282;9.640;2023-08-08T14:46:24;1.52;;;1.00;;
18883;SDS011;9574;47.282;9.640;2023-08-08T14:48:55;1.98;;;1.05;;
18883;SDS011;9574;47.282;9.640;2023-08-08T14:51:22;1.05;;;0.95;;
18883;SDS011;9574;47.282;9.640;2023-08-08T14:53:50;2.95;;;0.93;;
18883;SDS011;9574;47.282;9.640;2023-08-08T14:56:17;1.15;;;1.05;;
18883;SDS011;9574;47.282;9.640;2023-08-08T14:58:44;1.02;;;0.90;;
18883;SDS011;9574;47.282;9.640;2023-08-08T15:01:10;1.17;;;0.80;;
18883;SDS011;9574;47.282;9.640;2023-08-08T15:03:41;0.90;;;0.75;;
18883;SDS011;9574;47.282;9.640;2023-08-08T15:06:09;1.67;;;1.08;;